Main page
METAR-TAF:

METAR-TAF

Airports :

Hemphill County Airport

Canadian, Texas, United States

latitude: 35-54N, longitude: 100-24W, elevation: 2394 ft

Current weather observation

The report was made 18 minutes ago, at 17:35 UTC
Wind 13 mph from the Southwest with gusts up to 20 mph
Temperature 86°F
Humidity 46%
Pressure 29.94 in. Hg
Visibility: 10 miles
Clear sky

METAR: KHHF 151735Z AUTO 22011G17KT 10SM CLR 30/17 A2994 RMK AO2 T02970170

Time: 12:53 (17:53 UTC)


TAF: missing

Weather observations and forecasts of more than 4000 airports (METAR and TAF reports).

The available stations are represented by yellow and red dots on the map.

Hover mouse over dot to see the name of the station.

Then click to see weather observations and forecasts.

To change the map : click on the green buttons with a black cross to zoom in, on the green button with a dash to zoom out, or on the green arrows for adjacent maps.


METAR-TAF: